createdAt,value
2017-11-30T00:02:07.935Z,29.15
2017-11-30T00:04:36.457Z,26.77
2017-11-30T00:07:04.873Z,24.25
2017-11-30T00:09:33.254Z,28.05
2017-11-30T00:12:02.033Z,28.02
2017-11-30T00:14:30.430Z,25.48
2017-11-30T00:16:58.825Z,25.48
2017-11-30T00:19:27.486Z,27.10
2017-11-30T00:21:55.862Z,30.42
2017-11-30T00:24:24.236Z,30.35
2017-11-30T00:26:52.836Z,30.37
2017-11-30T00:29:21.209Z,30.37
2017-11-30T00:31:49.647Z,27.73
2017-11-30T00:34:18.168Z,29.33
2017-11-30T00:36:46.547Z,28.50
2017-11-30T00:39:15.057Z,31.08
2017-11-30T00:41:43.494Z,28.98
2017-11-30T00:47:13.040Z,22.92
2017-11-30T00:49:41.483Z,24.50
2017-11-30T00:52:09.856Z,27.25
2017-11-30T00:54:38.601Z,30.40
2017-11-30T00:57:06.984Z,30.65
2017-11-30T00:59:35.461Z,30.27
2017-11-30T01:02:03.881Z,22.00
2017-11-30T01:04:32.262Z,24.23
2017-11-30T01:07:00.644Z,23.52
2017-11-30T01:09:29.263Z,26.83
2017-11-30T01:11:57.669Z,24.00
2017-11-30T01:14:26.836Z,26.15
2017-11-30T01:16:55.255Z,26.15
2017-11-30T01:19:23.647Z,27.25
2017-11-30T01:21:52.021Z,29.25
2017-11-30T01:24:20.427Z,30.70
2017-11-30T01:26:48.840Z,27.58
2017-11-30T01:29:17.204Z,28.90
2017-11-30T01:31:45.893Z,31.70
2017-11-30T01:34:14.353Z,32.17
2017-11-30T01:36:42.729Z,34.92
2017-11-30T01:39:11.818Z,38.92
2017-11-30T01:41:40.196Z,40.45
2017-11-30T01:44:08.565Z,37.92
2017-11-30T01:46:37.367Z,46.25
2017-11-30T01:49:05.731Z,41.75
2017-11-30T01:51:34.123Z,47.13
2017-11-30T01:54:02.645Z,43.05
2017-11-30T01:56:31.116Z,46.78
2017-11-30T01:58:59.542Z,47.05
2017-11-30T02:01:28.019Z,42.75
2017-11-30T02:03:57.165Z,46.97
2017-11-30T02:06:25.544Z,47.88
2017-11-30T02:08:54.132Z,45.65
2017-11-30T02:11:22.521Z,58.95
2017-11-30T02:13:50.902Z,51.83
2017-11-30T02:16:19.562Z,54.30
2017-11-30T02:18:47.941Z,50.80
2017-11-30T02:21:16.333Z,48.30
2017-11-30T02:23:44.953Z,47.80
2017-11-30T02:26:14.114Z,47.97
2017-11-30T02:28:42.500Z,49.25
2017-11-30T02:31:11.165Z,48.55
2017-11-30T02:33:39.558Z,49.55
2017-11-30T02:36:07.942Z,51.70
2017-11-30T02:38:36.507Z,49.55
2017-11-30T02:41:04.912Z,51.28
2017-11-30T02:43:33.320Z,49.38
2017-11-30T02:46:01.943Z,40.65
2017-11-30T02:48:30.324Z,39.58
2017-11-30T02:50:58.740Z,54.17
2017-11-30T02:53:27.341Z,39.20
2017-11-30T02:55:56.491Z,49.53
2017-11-30T02:58:24.931Z,38.38
2017-11-30T03:00:53.740Z,41.20
2017-11-30T03:03:22.148Z,43.03
2017-11-30T03:05:50.546Z,42.42
2017-11-30T03:08:19.335Z,49.15
2017-11-30T03:10:47.703Z,46.53
2017-11-30T03:13:16.083Z,46.58
2017-11-30T03:15:44.776Z,46.13
2017-11-30T03:18:13.169Z,38.95
2017-11-30T03:20:42.322Z,40.85
2017-11-30T03:23:10.732Z,43.95
2017-11-30T03:25:39.112Z,41.05
2017-11-30T03:28:07.494Z,42.40
2017-11-30T03:30:37.157Z,43.10
2017-11-30T03:33:05.568Z,60.28
2017-11-30T03:35:33.937Z,44.67
2017-11-30T03:38:02.401Z,40.60
2017-11-30T03:40:31.550Z,41.33
2017-11-30T03:43:00.707Z,44.95
2017-11-30T03:45:29.375Z,48.92
2017-11-30T03:47:57.785Z,45.15
2017-11-30T03:50:26.194Z,46.40
2017-11-30T03:52:54.966Z,44.70
2017-11-30T03:55:24.131Z,52.25
2017-11-30T03:57:53.292Z,46.85
2017-11-30T04:00:21.996Z,38.05
2017-11-30T04:02:50.364Z,48.65
2017-11-30T04:05:18.744Z,41.30
2017-11-30T04:07:47.445Z,37.60
2017-11-30T04:10:15.829Z,38.08
2017-11-30T04:12:44.208Z,37.22
2017-11-30T04:15:12.702Z,40.88
2017-11-30T04:17:41.068Z,40.90
2017-11-30T04:20:09.443Z,43.83
2017-11-30T04:22:37.882Z,43.70
2017-11-30T04:25:06.253Z,44.95
2017-11-30T04:27:35.433Z,49.67
2017-11-30T04:30:03.961Z,51.30
2017-11-30T04:32:32.336Z,48.60
2017-11-30T04:35:00.712Z,44.83
2017-11-30T04:37:29.405Z,52.85
2017-11-30T04:39:58.031Z,49.42
2017-11-30T04:42:26.409Z,51.78
2017-11-30T04:44:54.963Z,60.33
2017-11-30T04:47:24.196Z,68.15
2017-11-30T04:49:52.580Z,55.70
2017-11-30T04:52:22.037Z,60.85
2017-11-30T04:54:50.446Z,50.53
2017-11-30T04:57:18.844Z,58.90
2017-11-30T04:59:48.115Z,54.72
2017-11-30T05:02:16.521Z,51.90
2017-11-30T05:04:45.733Z,57.17
2017-11-30T05:07:15.199Z,69.03
2017-11-30T05:09:43.602Z,64.78
2017-11-30T05:12:12.003Z,52.38
2017-11-30T05:14:40.722Z,52.50
2017-11-30T05:17:09.122Z,51.85
2017-11-30T05:19:37.532Z,51.83
2017-11-30T05:22:06.814Z,55.38
2017-11-30T05:24:35.196Z,65.45
2017-11-30T05:27:03.586Z,56.20
2017-11-30T05:29:32.156Z,54.55
2017-11-30T05:32:00.529Z,53.60
2017-11-30T05:34:28.944Z,69.40
2017-11-30T05:36:57.462Z,56.78
2017-11-30T05:39:25.853Z,63.28
2017-11-30T05:41:54.247Z,63.78
2017-11-30T05:44:23.040Z,53.95
2017-11-30T05:46:51.428Z,52.20
2017-11-30T05:49:20.580Z,59.67
2017-11-30T05:51:49.084Z,52.65
2017-11-30T05:54:17.470Z,49.30
2017-11-30T05:56:45.839Z,59.20
2017-11-30T05:59:14.296Z,51.70
2017-11-30T06:01:42.691Z,53.78
2017-11-30T06:04:11.072Z,49.90
2017-11-30T06:06:39.742Z,51.97
2017-11-30T06:09:08.129Z,47.60
2017-11-30T06:11:36.508Z,45.95
2017-11-30T06:14:05.015Z,44.20
2017-11-30T06:16:33.400Z,58.67
2017-11-30T06:19:02.545Z,46.72
2017-11-30T06:21:31.189Z,52.55
2017-11-30T06:24:00.445Z,42.88
2017-11-30T06:26:28.815Z,42.42
2017-11-30T06:28:57.520Z,45.17
2017-11-30T06:31:25.918Z,38.83
2017-11-30T06:33:55.144Z,36.88
2017-11-30T06:36:23.894Z,47.17
2017-11-30T06:38:52.306Z,41.37
2017-11-30T06:41:21.460Z,49.95
2017-11-30T06:43:49.994Z,34.42
2017-11-30T06:46:18.388Z,34.35
2017-11-30T06:48:46.782Z,28.38
2017-11-30T06:51:16.048Z,39.92
2017-11-30T06:53:44.425Z,33.10
2017-11-30T06:56:12.862Z,34.60
2017-11-30T06:58:41.392Z,36.60
2017-11-30T07:01:09.775Z,32.75
2017-11-30T07:03:38.212Z,28.98
2017-11-30T07:06:07.584Z,29.58
2017-11-30T07:08:36.041Z,31.12
2017-11-30T07:11:04.459Z,31.80
2017-11-30T07:13:33.329Z,29.42
2017-11-30T07:16:01.725Z,37.47
2017-11-30T07:18:30.130Z,31.87
2017-11-30T07:20:58.668Z,34.42
2017-11-30T07:23:27.112Z,43.13
2017-11-30T07:25:55.487Z,28.60
2017-11-30T07:28:23.907Z,54.88
2017-11-30T07:30:52.289Z,25.70
2017-11-30T07:33:20.800Z,26.23
2017-11-30T07:35:49.350Z,33.08
2017-11-30T07:38:17.754Z,30.12
2017-11-30T07:40:46.150Z,30.95
2017-11-30T07:43:15.595Z,26.33
2017-11-30T07:45:44.900Z,28.12
2017-11-30T07:48:13.268Z,26.45
2017-11-30T07:50:41.736Z,24.12
2017-11-30T07:53:10.906Z,29.83
2017-11-30T07:55:39.355Z,24.12
2017-11-30T07:58:08.144Z,24.60
2017-11-30T08:00:36.525Z,24.95
2017-11-30T08:03:04.912Z,26.48
2017-11-30T08:05:33.365Z,22.05
2017-11-30T08:08:01.757Z,27.42
2017-11-30T08:10:30.216Z,28.58
2017-11-30T08:12:58.682Z,21.73
2017-11-30T08:15:27.091Z,22.05
2017-11-30T08:17:56.256Z,21.30
2017-11-30T08:20:24.729Z,24.17
2017-11-30T08:22:53.313Z,20.70
2017-11-30T08:25:21.768Z,21.00
2017-11-30T08:27:50.253Z,21.08
2017-11-30T08:30:19.408Z,20.35
2017-11-30T08:32:47.810Z,19.77
2017-11-30T08:35:16.591Z,18.33
2017-11-30T08:37:45.037Z,18.70
2017-11-30T08:40:13.478Z,20.85
2017-11-30T08:42:43.049Z,17.40
2017-11-30T08:45:11.459Z,23.48
2017-11-30T08:47:39.887Z,20.08
2017-11-30T08:50:08.452Z,13.98
2017-11-30T08:52:36.901Z,17.58
2017-11-30T08:55:05.328Z,14.20
2017-11-30T08:57:34.188Z,14.68
2017-11-30T09:00:02.569Z,14.60
2017-11-30T09:02:30.998Z,12.25
2017-11-30T09:04:59.616Z,13.25
2017-11-30T09:07:28.813Z,10.77
2017-11-30T09:09:57.211Z,16.45
2017-11-30T09:12:26.657Z,15.88
2017-11-30T09:14:55.045Z,15.05
2017-11-30T09:17:23.418Z,10.93
2017-11-30T09:19:51.874Z,10.15
2017-11-30T09:22:20.302Z,13.18
2017-11-30T09:24:48.710Z,14.98
2017-11-30T09:27:17.678Z,20.33
2017-11-30T09:29:46.064Z,11.48
2017-11-30T09:32:15.350Z,16.45
2017-11-30T09:34:44.141Z,12.00
2017-11-30T09:37:12.532Z,12.90
2017-11-30T09:39:41.703Z,11.82
2017-11-30T09:42:10.488Z,12.23
2017-11-30T09:44:39.664Z,18.30
2017-11-30T09:47:08.080Z,9.63
2017-11-30T09:49:36.937Z,25.60
2017-11-30T09:52:05.318Z,10.88
2017-11-30T09:54:33.715Z,12.77
2017-11-30T09:57:02.503Z,13.88
2017-11-30T09:59:30.879Z,14.60
2017-11-30T10:01:59.289Z,13.82
2017-11-30T10:04:28.129Z,19.00
2017-11-30T10:06:56.507Z,16.35
2017-11-30T10:09:24.889Z,18.67
2017-11-30T10:11:53.693Z,12.27
2017-11-30T10:14:22.080Z,11.45
2017-11-30T10:16:50.459Z,10.00
2017-11-30T10:19:18.971Z,10.35
2017-11-30T10:21:47.353Z,11.73
2017-11-30T10:24:15.732Z,8.23
2017-11-30T10:26:44.346Z,9.70
2017-11-30T10:29:12.788Z,10.73
2017-11-30T10:31:41.924Z,9.45
2017-11-30T10:34:10.486Z,10.57
2017-11-30T10:36:38.867Z,9.40
2017-11-30T10:39:07.240Z,9.75
2017-11-30T10:41:35.753Z,13.07
2017-11-30T10:44:04.896Z,7.10
2017-11-30T10:46:34.059Z,9.10
2017-11-30T10:49:02.520Z,8.55
2017-11-30T10:51:30.997Z,11.02
2017-11-30T10:53:59.465Z,8.65
2017-11-30T10:56:27.892Z,9.50
2017-11-30T10:58:56.279Z,14.10
2017-11-30T11:01:25.444Z,10.95
2017-11-30T11:03:53.969Z,8.43
2017-11-30T11:06:22.353Z,13.30
2017-11-30T11:08:50.747Z,8.85
2017-11-30T11:11:19.257Z,9.32
2017-11-30T11:13:47.654Z,7.60
2017-11-30T11:16:21.955Z,7.10
2017-11-30T11:18:50.336Z,6.45
2017-11-30T11:21:18.776Z,11.65
2017-11-30T11:23:47.185Z,8.70
2017-11-30T11:26:15.584Z,11.60
2017-11-30T11:28:43.976Z,9.95
2017-11-30T11:31:12.520Z,7.05
2017-11-30T11:33:40.887Z,16.23
2017-11-30T11:36:09.269Z,8.95
2017-11-30T11:38:37.825Z,16.23
2017-11-30T11:41:06.336Z,11.05
2017-11-30T11:43:34.740Z,15.20
2017-11-30T11:46:03.248Z,12.43
2017-11-30T11:48:31.652Z,17.17
2017-11-30T11:51:00.058Z,14.25
2017-11-30T11:53:28.838Z,16.00
2017-11-30T11:55:57.235Z,15.70
2017-11-30T11:58:25.695Z,22.87
2017-11-30T12:00:54.121Z,17.05
2017-11-30T12:03:22.518Z,18.02
2017-11-30T12:05:50.932Z,16.85
2017-11-30T12:08:19.529Z,12.60
2017-11-30T12:10:47.983Z,17.98
2017-11-30T12:13:16.423Z,25.02
2017-11-30T12:15:44.872Z,15.73
2017-11-30T12:18:13.257Z,11.40
2017-11-30T12:20:41.646Z,12.70
2017-11-30T12:23:10.130Z,16.62
2017-11-30T12:25:38.604Z,15.90
2017-11-30T12:28:06.974Z,20.70
2017-11-30T12:30:35.676Z,15.32
2017-11-30T12:33:04.147Z,14.55
2017-11-30T12:35:32.534Z,16.60
2017-11-30T12:38:01.077Z,13.77
2017-11-30T12:40:29.521Z,16.12
2017-11-30T12:42:57.920Z,14.32
2017-11-30T12:45:26.367Z,18.45
2017-11-30T12:47:54.749Z,16.30
2017-11-30T12:50:23.121Z,17.08
2017-11-30T12:52:51.626Z,17.05
2017-11-30T12:55:20.010Z,17.95
2017-11-30T12:57:48.415Z,30.67
2017-11-30T13:00:16.913Z,23.75
2017-11-30T13:02:45.415Z,18.85
2017-11-30T13:05:13.801Z,19.70
2017-11-30T13:07:42.334Z,18.33
2017-11-30T13:10:10.711Z,20.88
2017-11-30T13:12:39.091Z,32.75
2017-11-30T13:15:07.586Z,39.78
2017-11-30T13:17:35.991Z,27.83
2017-11-30T13:20:04.382Z,22.37
2017-11-30T13:22:32.858Z,28.02
2017-11-30T13:25:01.237Z,23.25
2017-11-30T13:27:29.623Z,23.35
2017-11-30T13:29:58.177Z,21.42
2017-11-30T13:32:26.574Z,23.25
2017-11-30T13:34:54.947Z,29.85
2017-11-30T13:37:23.441Z,19.30
2017-11-30T13:39:51.904Z,28.15
2017-11-30T13:42:20.311Z,30.70
2017-11-30T13:44:48.719Z,26.08
2017-11-30T13:47:17.188Z,31.52
2017-11-30T13:49:45.600Z,23.60
2017-11-30T13:52:14.402Z,23.12
2017-11-30T13:54:42.782Z,21.25
2017-11-30T13:57:12.044Z,20.98
2017-11-30T13:59:40.626Z,28.75
2017-11-30T14:02:09.068Z,25.02
2017-11-30T14:04:37.707Z,27.35
2017-11-30T14:07:06.303Z,22.23
2017-11-30T14:09:34.681Z,23.65
2017-11-30T14:12:03.060Z,20.60
2017-11-30T14:14:31.585Z,18.02
2017-11-30T14:16:59.987Z,17.12
2017-11-30T14:19:28.446Z,19.50
2017-11-30T14:21:56.987Z,22.95
2017-11-30T14:24:26.130Z,25.62
2017-11-30T14:26:55.281Z,21.02
2017-11-30T14:29:23.986Z,26.12
2017-11-30T14:31:52.379Z,19.27
2017-11-30T14:34:20.866Z,21.65
2017-11-30T14:36:50.077Z,19.58
2017-11-30T14:39:19.250Z,25.12
2017-11-30T14:41:47.632Z,19.40
2017-11-30T14:44:16.099Z,16.23
2017-11-30T14:46:44.600Z,14.77
2017-11-30T14:49:13.809Z,15.23
2017-11-30T14:51:42.477Z,21.27
2017-11-30T14:54:11.643Z,16.67
2017-11-30T14:56:40.916Z,16.50
2017-11-30T14:59:09.528Z,16.67
2017-11-30T15:01:37.911Z,19.25
2017-11-30T15:04:06.389Z,13.90
2017-11-30T15:06:35.195Z,21.02
2017-11-30T15:09:03.670Z,15.80
2017-11-30T15:11:32.001Z,19.33
2017-11-30T15:14:00.920Z,15.15
2017-11-30T15:16:29.356Z,21.25
2017-11-30T15:18:58.510Z,20.65
2017-11-30T15:21:27.187Z,19.70
2017-11-30T15:23:55.567Z,18.80
2017-11-30T15:26:23.935Z,20.08
2017-11-30T15:28:52.518Z,25.10
2017-11-30T15:31:20.935Z,22.58
2017-11-30T15:33:49.311Z,22.70
2017-11-30T15:36:17.726Z,23.33
2017-11-30T15:38:46.106Z,23.77
2017-11-30T15:41:14.490Z,16.92
2017-11-30T15:43:42.983Z,23.00
2017-11-30T15:46:11.442Z,21.00
2017-11-30T15:48:39.841Z,20.05
2017-11-30T15:51:08.414Z,24.58
2017-11-30T15:53:36.798Z,24.52
2017-11-30T15:56:05.174Z,27.73
2017-11-30T15:58:33.726Z,42.47
2017-11-30T16:01:02.925Z,24.30
2017-11-30T16:03:31.302Z,21.52
2017-11-30T16:06:00.035Z,21.52
2017-11-30T16:08:28.442Z,18.52
2017-11-30T16:10:56.938Z,21.35
2017-11-30T16:13:26.213Z,25.12
2017-11-30T16:15:54.606Z,21.15
2017-11-30T16:18:23.767Z,21.80
2017-11-30T16:20:52.190Z,23.70
2017-11-30T16:23:20.649Z,22.17
2017-11-30T16:25:49.179Z,20.37
2017-11-30T16:28:18.026Z,22.50
2017-11-30T16:30:46.460Z,21.90
2017-11-30T16:33:14.857Z,19.35
2017-11-30T16:35:43.385Z,26.05
2017-11-30T16:38:11.775Z,23.85
2017-11-30T16:40:40.158Z,23.00
2017-11-30T16:43:08.780Z,21.73
2017-11-30T16:45:37.181Z,24.55
2017-11-30T16:48:05.593Z,23.80
2017-11-30T16:50:35.264Z,26.15
2017-11-30T16:53:03.629Z,20.33
2017-11-30T16:55:32.033Z,22.92
2017-11-30T16:58:01.175Z,21.50
2017-11-30T17:00:29.830Z,22.23
2017-11-30T17:02:58.259Z,16.70
2017-11-30T17:05:27.073Z,18.85
2017-11-30T17:07:56.266Z,18.45
2017-11-30T17:10:24.684Z,19.50
2017-11-30T17:12:53.943Z,18.58
2017-11-30T17:15:22.899Z,17.35
2017-11-30T17:17:51.553Z,18.67
2017-11-30T17:20:20.818Z,16.20
2017-11-30T17:22:49.193Z,14.13
2017-11-30T17:25:17.609Z,19.20
2017-11-30T17:27:47.141Z,18.52
2017-11-30T17:30:15.642Z,18.33
2017-11-30T17:32:44.082Z,12.35
2017-11-30T17:35:13.655Z,13.40
2017-11-30T17:37:42.129Z,14.00
2017-11-30T17:40:10.543Z,14.48
2017-11-30T17:42:39.854Z,13.35
2017-11-30T17:45:08.238Z,11.40
2017-11-30T17:47:37.388Z,16.23
2017-11-30T17:50:05.994Z,9.27
2017-11-30T17:52:34.396Z,12.73
2017-11-30T17:55:02.793Z,11.85
2017-11-30T17:57:31.533Z,14.13
2017-11-30T17:59:59.925Z,15.20
2017-11-30T18:02:28.359Z,14.05
2017-11-30T18:04:57.195Z,13.75
2017-11-30T18:07:26.350Z,16.33
2017-11-30T18:09:54.907Z,15.20
2017-11-30T18:12:23.461Z,14.75
2017-11-30T18:14:52.754Z,22.55
2017-11-30T18:17:21.169Z,15.98
2017-11-30T18:19:49.705Z,19.48
2017-11-30T18:22:18.083Z,14.52
2017-11-30T18:24:46.463Z,17.80
2017-11-30T18:27:15.720Z,19.15
2017-11-30T18:29:44.114Z,15.75
2017-11-30T18:32:12.580Z,19.62
2017-11-30T18:34:41.612Z,17.83
2017-11-30T18:37:10.064Z,18.52
2017-11-30T18:39:38.593Z,23.02
2017-11-30T18:42:07.697Z,21.33
2017-11-30T18:44:36.442Z,20.17
2017-11-30T18:47:06.370Z,20.27
2017-11-30T18:49:35.424Z,18.95
2017-11-30T18:52:03.982Z,20.50
2017-11-30T18:54:32.775Z,21.23
2017-11-30T18:57:01.844Z,20.40
2017-11-30T18:59:30.291Z,21.77
2017-11-30T19:01:58.979Z,20.92
2017-11-30T19:04:27.851Z,21.92
2017-11-30T19:06:57.692Z,22.58
2017-11-30T19:09:27.005Z,38.58
2017-11-30T19:11:56.026Z,23.67
2017-11-30T19:14:24.876Z,19.23
2017-11-30T19:16:53.871Z,21.37
2017-11-30T19:19:22.844Z,27.00
2017-11-30T19:21:51.934Z,27.30
2017-11-30T19:24:21.028Z,24.63
2017-11-30T19:26:50.950Z,24.37
2017-11-30T19:29:19.654Z,22.92
2017-11-30T19:31:48.730Z,22.65
2017-11-30T19:34:18.336Z,21.27
2017-11-30T19:36:46.946Z,21.20
2017-11-30T19:39:15.755Z,19.60
2017-11-30T19:41:44.514Z,21.25
2017-11-30T19:44:13.193Z,20.55
2017-11-30T19:46:41.916Z,21.98
2017-11-30T19:49:11.413Z,22.98
2017-11-30T19:51:40.375Z,24.73
2017-11-30T19:54:09.263Z,24.58
2017-11-30T19:56:39.333Z,20.20
2017-11-30T19:59:08.315Z,17.95
2017-11-30T20:01:46.999Z,18.80
2017-11-30T20:04:15.985Z,19.17
2017-11-30T20:06:44.768Z,20.92
2017-11-30T20:09:14.116Z,22.62
2017-11-30T20:11:43.268Z,23.20
2017-11-30T20:14:13.093Z,17.30
2017-11-30T20:16:42.373Z,19.05
2017-11-30T20:19:12.789Z,16.35
2017-11-30T20:21:42.163Z,18.92
2017-11-30T20:24:11.208Z,15.85
2017-11-30T20:26:40.085Z,24.35
2017-11-30T20:29:09.226Z,14.63
2017-11-30T20:31:37.660Z,14.57
2017-11-30T20:34:06.210Z,18.33
2017-11-30T20:36:35.046Z,20.37
2017-11-30T20:39:04.207Z,19.33
2017-11-30T20:41:33.001Z,19.73
2017-11-30T20:44:02.699Z,23.70
2017-11-30T20:46:31.795Z,25.10
2017-11-30T20:49:00.797Z,19.35
2017-11-30T20:51:29.827Z,24.08
2017-11-30T20:53:58.674Z,22.87
2017-11-30T20:56:27.581Z,24.17
2017-11-30T20:58:57.224Z,32.42
2017-11-30T21:01:27.074Z,25.62
2017-11-30T21:03:55.900Z,20.52
2017-11-30T21:06:25.452Z,23.33
2017-11-30T21:08:54.991Z,25.45
2017-11-30T21:11:23.879Z,24.92
2017-11-30T21:13:54.035Z,23.50
2017-11-30T21:16:23.527Z,25.00
2017-11-30T21:18:52.361Z,23.48
2017-11-30T21:21:21.661Z,25.52
2017-11-30T21:23:50.540Z,20.33
2017-11-30T21:26:19.220Z,22.83
2017-11-30T21:28:48.304Z,18.30
2017-11-30T21:31:17.168Z,18.90
2017-11-30T21:33:46.605Z,19.77
2017-11-30T21:36:15.818Z,22.40
2017-11-30T21:38:44.585Z,18.08
2017-11-30T21:41:13.608Z,19.75
2017-11-30T21:43:42.874Z,16.02
2017-11-30T21:46:11.922Z,17.65
2017-11-30T21:48:40.903Z,18.55
2017-11-30T21:51:10.699Z,17.48
2017-11-30T21:53:40.451Z,15.43
2017-11-30T21:56:10.334Z,18.98
2017-11-30T21:58:39.366Z,18.58
2017-11-30T22:01:08.330Z,24.15
2017-11-30T22:03:38.979Z,16.52
2017-11-30T22:06:07.857Z,14.25
2017-11-30T22:08:36.930Z,17.60
2017-11-30T22:11:06.281Z,13.10
2017-11-30T22:13:35.173Z,16.27
2017-11-30T22:16:04.743Z,16.05
2017-11-30T22:18:33.864Z,16.15
2017-11-30T22:21:02.613Z,17.77
2017-11-30T22:23:31.577Z,21.70
2017-11-30T22:26:00.641Z,15.07
2017-11-30T22:28:29.613Z,13.70
2017-11-30T22:30:58.310Z,10.65
2017-11-30T22:33:27.354Z,8.40
2017-11-30T22:35:55.977Z,9.52
2017-11-30T22:38:24.412Z,12.30
2017-11-30T22:40:54.126Z,8.80
2017-11-30T22:43:23.168Z,10.15
2017-11-30T22:45:51.645Z,10.00
2017-11-30T22:48:20.196Z,9.65
2017-11-30T22:50:49.366Z,8.85
2017-11-30T22:53:17.802Z,10.10
2017-11-30T22:55:46.366Z,12.27
2017-11-30T22:58:14.750Z,6.40
2017-11-30T23:00:43.130Z,10.57
2017-11-30T23:03:11.565Z,8.15
2017-11-30T23:05:39.954Z,11.80
2017-11-30T23:08:08.417Z,21.45
2017-11-30T23:10:37.299Z,10.02
2017-11-30T23:13:05.820Z,9.25
2017-11-30T23:15:34.299Z,9.93
2017-11-30T23:18:03.595Z,10.65
2017-11-30T23:20:32.742Z,9.75
2017-11-30T23:23:01.133Z,8.13
2017-11-30T23:25:29.704Z,10.63
2017-11-30T23:27:58.109Z,9.68
2017-11-30T23:30:26.574Z,11.82
2017-11-30T23:32:55.356Z,7.15
2017-11-30T23:35:23.734Z,7.53
2017-11-30T23:37:52.891Z,6.57
2017-11-30T23:40:21.422Z,9.40
2017-11-30T23:42:49.803Z,10.20
2017-11-30T23:45:18.192Z,19.75
2017-11-30T23:47:46.846Z,10.32
2017-11-30T23:50:15.242Z,12.63
2017-11-30T23:52:43.624Z,12.02
2017-11-30T23:55:12.394Z,6.43
2017-11-30T23:57:40.794Z,9.48
